sensor_id;sensor_type;location;lat;lon;timestamp;P1;durP1;ratioP1;P2;durP2;ratioP2
11203;SDS011;5659;49.408;11.116;2024-03-02T00:00:05;73.33;;;39.07;;
11203;SDS011;5659;49.408;11.116;2024-03-02T00:02:42;76.53;;;38.03;;
11203;SDS011;5659;49.408;11.116;2024-03-02T00:05:19;71.40;;;39.07;;
11203;SDS011;5659;49.408;11.116;2024-03-02T00:07:46;77.47;;;37.47;;
11203;SDS011;5659;49.408;11.116;2024-03-02T00:10:19;72.30;;;37.73;;
11203;SDS011;5659;49.408;11.116;2024-03-02T00:12:50;70.67;;;37.50;;
11203;SDS011;5659;49.408;11.116;2024-03-02T00:18:06;76.80;;;40.40;;
11203;SDS011;5659;49.408;11.116;2024-03-02T00:20:35;86.53;;;41.53;;
11203;SDS011;5659;49.408;11.116;2024-03-02T00:23:04;77.87;;;40.13;;
11203;SDS011;5659;49.408;11.116;2024-03-02T00:25:50;77.77;;;40.17;;
11203;SDS011;5659;49.408;11.116;2024-03-02T00:28:21;74.70;;;40.17;;
11203;SDS011;5659;49.408;11.116;2024-03-02T00:31:30;76.53;;;40.80;;
11203;SDS011;5659;49.408;11.116;2024-03-02T00:33:41;78.13;;;41.83;;
11203;SDS011;5659;49.408;11.116;2024-03-02T00:36:12;78.73;;;41.37;;
11203;SDS011;5659;49.408;11.116;2024-03-02T00:38:47;88.97;;;42.30;;
11203;SDS011;5659;49.408;11.116;2024-03-02T00:41:27;79.63;;;41.53;;
11203;SDS011;5659;49.408;11.116;2024-03-02T00:46:26;82.97;;;42.20;;
11203;SDS011;5659;49.408;11.116;2024-03-02T00:48:58;88.37;;;42.63;;
11203;SDS011;5659;49.408;11.116;2024-03-02T00:51:26;68.30;;;39.70;;
11203;SDS011;5659;49.408;11.116;2024-03-02T00:53:54;80.23;;;41.17;;
11203;SDS011;5659;49.408;11.116;2024-03-02T00:56:21;74.63;;;41.27;;
11203;SDS011;5659;49.408;11.116;2024-03-02T00:58:48;77.43;;;40.73;;
11203;SDS011;5659;49.408;11.116;2024-03-02T01:01:14;76.97;;;39.73;;
11203;SDS011;5659;49.408;11.116;2024-03-02T01:03:41;74.53;;;40.40;;
11203;SDS011;5659;49.408;11.116;2024-03-02T01:06:07;71.37;;;40.37;;
11203;SDS011;5659;49.408;11.116;2024-03-02T01:08:35;77.73;;;39.47;;
11203;SDS011;5659;49.408;11.116;2024-03-02T01:11:02;84.93;;;40.77;;
11203;SDS011;5659;49.408;11.116;2024-03-02T01:13:28;72.63;;;40.43;;
11203;SDS011;5659;49.408;11.116;2024-03-02T01:15:53;75.90;;;39.83;;
11203;SDS011;5659;49.408;11.116;2024-03-02T01:18:19;79.20;;;39.80;;
11203;SDS011;5659;49.408;11.116;2024-03-02T01:20:45;80.97;;;41.23;;
11203;SDS011;5659;49.408;11.116;2024-03-02T01:23:10;72.17;;;39.93;;
11203;SDS011;5659;49.408;11.116;2024-03-02T01:25:36;81.73;;;41.90;;
11203;SDS011;5659;49.408;11.116;2024-03-02T01:28:02;78.60;;;41.07;;
11203;SDS011;5659;49.408;11.116;2024-03-02T01:30:28;82.70;;;39.90;;
11203;SDS011;5659;49.408;11.116;2024-03-02T01:32:53;83.90;;;40.37;;
11203;SDS011;5659;49.408;11.116;2024-03-02T01:35:19;76.07;;;40.77;;
11203;SDS011;5659;49.408;11.116;2024-03-02T01:37:44;73.30;;;40.97;;
11203;SDS011;5659;49.408;11.116;2024-03-02T01:40:10;83.33;;;41.90;;
11203;SDS011;5659;49.408;11.116;2024-03-02T01:42:36;79.60;;;40.57;;
11203;SDS011;5659;49.408;11.116;2024-03-02T01:45:04;80.30;;;41.53;;
11203;SDS011;5659;49.408;11.116;2024-03-02T01:47:33;79.40;;;40.73;;
11203;SDS011;5659;49.408;11.116;2024-03-02T01:49:59;80.80;;;41.90;;
11203;SDS011;5659;49.408;11.116;2024-03-02T01:52:26;78.33;;;41.93;;
11203;SDS011;5659;49.408;11.116;2024-03-02T01:54:52;85.00;;;43.27;;
11203;SDS011;5659;49.408;11.116;2024-03-02T01:57:17;85.93;;;43.13;;
11203;SDS011;5659;49.408;11.116;2024-03-02T01:59:43;79.53;;;42.10;;
11203;SDS011;5659;49.408;11.116;2024-03-02T02:02:10;88.43;;;42.40;;
11203;SDS011;5659;49.408;11.116;2024-03-02T02:04:35;89.03;;;43.90;;
11203;SDS011;5659;49.408;11.116;2024-03-02T02:07:01;75.77;;;42.17;;
11203;SDS011;5659;49.408;11.116;2024-03-02T02:09:26;79.17;;;43.13;;
11203;SDS011;5659;49.408;11.116;2024-03-02T02:11:52;90.17;;;43.37;;
11203;SDS011;5659;49.408;11.116;2024-03-02T02:14:18;90.23;;;43.37;;
11203;SDS011;5659;49.408;11.116;2024-03-02T02:16:43;83.57;;;41.50;;
11203;SDS011;5659;49.408;11.116;2024-03-02T02:19:09;89.33;;;43.10;;
11203;SDS011;5659;49.408;11.116;2024-03-02T02:21:35;88.40;;;42.53;;
11203;SDS011;5659;49.408;11.116;2024-03-02T02:24:01;88.37;;;42.93;;
11203;SDS011;5659;49.408;11.116;2024-03-02T02:26:28;85.63;;;42.83;;
11203;SDS011;5659;49.408;11.116;2024-03-02T02:28:54;83.83;;;42.07;;
11203;SDS011;5659;49.408;11.116;2024-03-02T02:31:20;81.90;;;42.03;;
11203;SDS011;5659;49.408;11.116;2024-03-02T02:33:45;85.83;;;43.17;;
11203;SDS011;5659;49.408;11.116;2024-03-02T02:36:11;85.37;;;41.57;;
11203;SDS011;5659;49.408;11.116;2024-03-02T02:38:44;84.50;;;41.57;;
11203;SDS011;5659;49.408;11.116;2024-03-02T02:41:11;85.43;;;42.73;;
11203;SDS011;5659;49.408;11.116;2024-03-02T02:43:36;85.53;;;43.37;;
11203;SDS011;5659;49.408;11.116;2024-03-02T02:46:02;91.97;;;44.43;;
11203;SDS011;5659;49.408;11.116;2024-03-02T02:48:27;84.27;;;42.00;;
11203;SDS011;5659;49.408;11.116;2024-03-02T02:50:53;93.53;;;42.20;;
11203;SDS011;5659;49.408;11.116;2024-03-02T02:53:18;83.63;;;41.60;;
11203;SDS011;5659;49.408;11.116;2024-03-02T02:55:44;82.33;;;42.23;;
11203;SDS011;5659;49.408;11.116;2024-03-02T02:58:09;89.13;;;40.70;;
11203;SDS011;5659;49.408;11.116;2024-03-02T03:00:35;77.00;;;39.67;;
11203;SDS011;5659;49.408;11.116;2024-03-02T03:03:01;88.33;;;40.53;;
11203;SDS011;5659;49.408;11.116;2024-03-02T03:05:27;88.40;;;41.17;;
11203;SDS011;5659;49.408;11.116;2024-03-02T03:07:53;81.87;;;39.67;;
11203;SDS011;5659;49.408;11.116;2024-03-02T03:10:18;74.37;;;39.90;;
11203;SDS011;5659;49.408;11.116;2024-03-02T03:12:47;86.00;;;38.73;;
11203;SDS011;5659;49.408;11.116;2024-03-02T03:15:12;78.07;;;38.53;;
11203;SDS011;5659;49.408;11.116;2024-03-02T03:17:39;74.73;;;38.10;;
11203;SDS011;5659;49.408;11.116;2024-03-02T03:20:05;73.60;;;37.07;;
11203;SDS011;5659;49.408;11.116;2024-03-02T03:22:34;74.57;;;36.73;;
11203;SDS011;5659;49.408;11.116;2024-03-02T03:25:00;63.10;;;34.57;;
11203;SDS011;5659;49.408;11.116;2024-03-02T03:27:26;65.03;;;35.57;;
11203;SDS011;5659;49.408;11.116;2024-03-02T03:29:52;62.53;;;34.50;;
11203;SDS011;5659;49.408;11.116;2024-03-02T03:32:17;63.60;;;34.47;;
11203;SDS011;5659;49.408;11.116;2024-03-02T03:34:43;61.10;;;32.57;;
11203;SDS011;5659;49.408;11.116;2024-03-02T03:37:09;57.20;;;33.10;;
11203;SDS011;5659;49.408;11.116;2024-03-02T03:39:34;53.63;;;31.87;;
11203;SDS011;5659;49.408;11.116;2024-03-02T03:42:01;49.20;;;29.73;;
11203;SDS011;5659;49.408;11.116;2024-03-02T03:44:26;50.27;;;29.67;;
11203;SDS011;5659;49.408;11.116;2024-03-02T03:46:52;51.30;;;29.30;;
11203;SDS011;5659;49.408;11.116;2024-03-02T03:49:17;53.50;;;29.53;;
11203;SDS011;5659;49.408;11.116;2024-03-02T03:51:43;55.17;;;29.67;;
11203;SDS011;5659;49.408;11.116;2024-03-02T03:54:08;45.07;;;28.33;;
11203;SDS011;5659;49.408;11.116;2024-03-02T03:56:36;53.70;;;28.10;;
11203;SDS011;5659;49.408;11.116;2024-03-02T03:59:01;45.50;;;28.20;;
11203;SDS011;5659;49.408;11.116;2024-03-02T04:01:27;43.77;;;27.57;;
11203;SDS011;5659;49.408;11.116;2024-03-02T04:03:53;42.97;;;27.23;;
11203;SDS011;5659;49.408;11.116;2024-03-02T04:06:18;45.83;;;27.60;;
11203;SDS011;5659;49.408;11.116;2024-03-02T04:08:44;47.93;;;27.70;;
11203;SDS011;5659;49.408;11.116;2024-03-02T04:11:09;45.70;;;27.13;;
11203;SDS011;5659;49.408;11.116;2024-03-02T04:13:35;41.53;;;27.43;;
11203;SDS011;5659;49.408;11.116;2024-03-02T04:16:00;43.90;;;26.57;;
11203;SDS011;5659;49.408;11.116;2024-03-02T04:18:26;40.93;;;26.27;;
11203;SDS011;5659;49.408;11.116;2024-03-02T04:20:51;40.47;;;25.40;;
11203;SDS011;5659;49.408;11.116;2024-03-02T04:23:17;38.17;;;24.43;;
11203;SDS011;5659;49.408;11.116;2024-03-02T04:25:43;38.87;;;25.43;;
11203;SDS011;5659;49.408;11.116;2024-03-02T04:28:08;40.37;;;25.33;;
11203;SDS011;5659;49.408;11.116;2024-03-02T04:30:34;42.50;;;26.33;;
11203;SDS011;5659;49.408;11.116;2024-03-02T04:32:59;41.47;;;26.07;;
11203;SDS011;5659;49.408;11.116;2024-03-02T04:35:26;44.50;;;26.93;;
11203;SDS011;5659;49.408;11.116;2024-03-02T04:37:51;46.20;;;26.03;;
11203;SDS011;5659;49.408;11.116;2024-03-02T04:40:17;45.40;;;26.10;;
11203;SDS011;5659;49.408;11.116;2024-03-02T04:42:42;42.00;;;25.23;;
11203;SDS011;5659;49.408;11.116;2024-03-02T04:45:08;42.70;;;26.73;;
11203;SDS011;5659;49.408;11.116;2024-03-02T04:47:34;46.47;;;26.00;;
11203;SDS011;5659;49.408;11.116;2024-03-02T04:49:59;45.33;;;26.87;;
11203;SDS011;5659;49.408;11.116;2024-03-02T04:52:25;48.33;;;26.57;;
11203;SDS011;5659;49.408;11.116;2024-03-02T04:54:51;45.23;;;27.17;;
11203;SDS011;5659;49.408;11.116;2024-03-02T04:57:35;46.27;;;26.30;;
11203;SDS011;5659;49.408;11.116;2024-03-02T05:00:00;47.63;;;27.43;;
11203;SDS011;5659;49.408;11.116;2024-03-02T05:02:26;48.90;;;25.50;;
11203;SDS011;5659;49.408;11.116;2024-03-02T05:04:52;46.43;;;27.63;;
11203;SDS011;5659;49.408;11.116;2024-03-02T05:07:17;49.83;;;27.67;;
11203;SDS011;5659;49.408;11.116;2024-03-02T05:09:43;50.30;;;27.23;;
11203;SDS011;5659;49.408;11.116;2024-03-02T05:12:08;47.43;;;28.30;;
11203;SDS011;5659;49.408;11.116;2024-03-02T05:14:54;53.27;;;28.80;;
11203;SDS011;5659;49.408;11.116;2024-03-02T05:17:20;50.43;;;29.53;;
11203;SDS011;5659;49.408;11.116;2024-03-02T05:19:45;52.50;;;28.60;;
11203;SDS011;5659;49.408;11.116;2024-03-02T05:22:11;49.30;;;28.27;;
11203;SDS011;5659;49.408;11.116;2024-03-02T05:24:36;52.47;;;27.13;;
11203;SDS011;5659;49.408;11.116;2024-03-02T05:27:02;55.20;;;29.10;;
11203;SDS011;5659;49.408;11.116;2024-03-02T05:29:28;52.63;;;28.93;;
11203;SDS011;5659;49.408;11.116;2024-03-02T05:31:53;55.43;;;28.97;;
11203;SDS011;5659;49.408;11.116;2024-03-02T05:34:19;59.13;;;29.70;;
11203;SDS011;5659;49.408;11.116;2024-03-02T05:36:44;61.80;;;31.57;;
11203;SDS011;5659;49.408;11.116;2024-03-02T05:39:10;64.47;;;30.17;;
11203;SDS011;5659;49.408;11.116;2024-03-02T05:41:35;62.03;;;30.23;;
11203;SDS011;5659;49.408;11.116;2024-03-02T05:44:01;57.47;;;30.37;;
11203;SDS011;5659;49.408;11.116;2024-03-02T05:46:27;63.87;;;31.70;;
11203;SDS011;5659;49.408;11.116;2024-03-02T05:48:52;62.57;;;30.73;;
11203;SDS011;5659;49.408;11.116;2024-03-02T05:51:18;63.10;;;29.87;;
11203;SDS011;5659;49.408;11.116;2024-03-02T05:53:43;63.23;;;30.40;;
11203;SDS011;5659;49.408;11.116;2024-03-02T05:56:09;59.23;;;31.60;;
11203;SDS011;5659;49.408;11.116;2024-03-02T05:58:34;63.77;;;30.30;;
11203;SDS011;5659;49.408;11.116;2024-03-02T06:01:03;59.77;;;31.97;;
11203;SDS011;5659;49.408;11.116;2024-03-02T06:03:29;61.40;;;31.47;;
11203;SDS011;5659;49.408;11.116;2024-03-02T06:05:55;64.80;;;31.27;;
11203;SDS011;5659;49.408;11.116;2024-03-02T06:08:21;62.07;;;31.97;;
11203;SDS011;5659;49.408;11.116;2024-03-02T06:10:46;68.67;;;32.83;;
11203;SDS011;5659;49.408;11.116;2024-03-02T06:13:12;69.00;;;33.27;;
11203;SDS011;5659;49.408;11.116;2024-03-02T06:15:37;66.83;;;33.43;;
11203;SDS011;5659;49.408;11.116;2024-03-02T06:18:03;70.37;;;32.97;;
11203;SDS011;5659;49.408;11.116;2024-03-02T06:20:29;67.27;;;32.03;;
11203;SDS011;5659;49.408;11.116;2024-03-02T06:22:56;66.53;;;30.83;;
11203;SDS011;5659;49.408;11.116;2024-03-02T06:25:21;64.60;;;31.83;;
11203;SDS011;5659;49.408;11.116;2024-03-02T06:27:47;71.53;;;32.53;;
11203;SDS011;5659;49.408;11.116;2024-03-02T06:30:12;71.80;;;32.33;;
11203;SDS011;5659;49.408;11.116;2024-03-02T06:32:38;65.97;;;32.50;;
11203;SDS011;5659;49.408;11.116;2024-03-02T06:35:04;69.03;;;32.97;;
11203;SDS011;5659;49.408;11.116;2024-03-02T06:37:32;65.30;;;32.70;;
11203;SDS011;5659;49.408;11.116;2024-03-02T06:39:57;73.03;;;33.27;;
11203;SDS011;5659;49.408;11.116;2024-03-02T06:42:23;73.23;;;33.23;;
11203;SDS011;5659;49.408;11.116;2024-03-02T06:44:49;70.40;;;33.33;;
11203;SDS011;5659;49.408;11.116;2024-03-02T06:47:15;71.33;;;33.93;;
11203;SDS011;5659;49.408;11.116;2024-03-02T06:49:41;75.53;;;33.87;;
11203;SDS011;5659;49.408;11.116;2024-03-02T06:52:07;77.67;;;32.43;;
11203;SDS011;5659;49.408;11.116;2024-03-02T06:54:33;70.00;;;33.47;;
11203;SDS011;5659;49.408;11.116;2024-03-02T06:56:59;74.67;;;33.17;;
11203;SDS011;5659;49.408;11.116;2024-03-02T06:59:25;79.20;;;33.23;;
11203;SDS011;5659;49.408;11.116;2024-03-02T07:01:50;67.53;;;31.80;;
11203;SDS011;5659;49.408;11.116;2024-03-02T07:04:16;63.40;;;30.93;;
11203;SDS011;5659;49.408;11.116;2024-03-02T07:06:41;69.37;;;32.50;;
11203;SDS011;5659;49.408;11.116;2024-03-02T07:09:07;77.43;;;34.40;;
11203;SDS011;5659;49.408;11.116;2024-03-02T07:11:35;74.27;;;33.20;;
11203;SDS011;5659;49.408;11.116;2024-03-02T07:14:01;75.00;;;33.17;;
11203;SDS011;5659;49.408;11.116;2024-03-02T07:16:27;69.13;;;32.50;;
11203;SDS011;5659;49.408;11.116;2024-03-02T07:18:58;65.47;;;32.07;;
11203;SDS011;5659;49.408;11.116;2024-03-02T07:21:24;65.80;;;32.30;;
11203;SDS011;5659;49.408;11.116;2024-03-02T07:23:49;66.53;;;33.40;;
11203;SDS011;5659;49.408;11.116;2024-03-02T07:26:15;61.57;;;30.70;;
11203;SDS011;5659;49.408;11.116;2024-03-02T07:28:43;70.93;;;33.30;;
11203;SDS011;5659;49.408;11.116;2024-03-02T07:31:09;59.77;;;31.93;;
11203;SDS011;5659;49.408;11.116;2024-03-02T07:33:35;62.10;;;32.37;;
11203;SDS011;5659;49.408;11.116;2024-03-02T07:36:01;53.60;;;31.17;;
11203;SDS011;5659;49.408;11.116;2024-03-02T07:38:28;51.17;;;30.23;;
11203;SDS011;5659;49.408;11.116;2024-03-02T07:40:54;47.92;;;28.95;;
11203;SDS011;5659;49.408;11.116;2024-03-02T07:43:20;46.17;;;28.63;;
11203;SDS011;5659;49.408;11.116;2024-03-02T07:45:47;46.47;;;27.85;;
11203;SDS011;5659;49.408;11.116;2024-03-02T07:48:13;43.30;;;26.38;;
11203;SDS011;5659;49.408;11.116;2024-03-02T07:50:39;39.08;;;25.33;;
11203;SDS011;5659;49.408;11.116;2024-03-02T07:53:05;39.15;;;25.38;;
11203;SDS011;5659;49.408;11.116;2024-03-02T07:55:32;38.40;;;24.88;;
11203;SDS011;5659;49.408;11.116;2024-03-02T07:57:58;38.30;;;24.00;;
11203;SDS011;5659;49.408;11.116;2024-03-02T08:00:24;34.50;;;22.77;;
11203;SDS011;5659;49.408;11.116;2024-03-02T08:02:50;32.53;;;21.95;;
11203;SDS011;5659;49.408;11.116;2024-03-02T08:05:17;35.57;;;22.77;;
11203;SDS011;5659;49.408;11.116;2024-03-02T08:07:45;28.20;;;20.52;;
11203;SDS011;5659;49.408;11.116;2024-03-02T08:10:12;34.42;;;19.88;;
11203;SDS011;5659;49.408;11.116;2024-03-02T08:12:38;26.90;;;19.70;;
11203;SDS011;5659;49.408;11.116;2024-03-02T08:15:04;28.75;;;19.80;;
11203;SDS011;5659;49.408;11.116;2024-03-02T08:17:31;28.42;;;19.00;;
11203;SDS011;5659;49.408;11.116;2024-03-02T08:19:57;26.98;;;18.80;;
11203;SDS011;5659;49.408;11.116;2024-03-02T08:22:23;24.52;;;18.55;;
11203;SDS011;5659;49.408;11.116;2024-03-02T08:24:52;23.73;;;17.75;;
11203;SDS011;5659;49.408;11.116;2024-03-02T08:27:18;23.27;;;17.40;;
11203;SDS011;5659;49.408;11.116;2024-03-02T08:29:44;23.10;;;16.90;;
11203;SDS011;5659;49.408;11.116;2024-03-02T08:32:09;21.92;;;16.85;;
11203;SDS011;5659;49.408;11.116;2024-03-02T08:34:35;24.33;;;17.45;;
11203;SDS011;5659;49.408;11.116;2024-03-02T08:37:01;23.65;;;16.83;;
11203;SDS011;5659;49.408;11.116;2024-03-02T08:39:27;20.52;;;16.35;;
11203;SDS011;5659;49.408;11.116;2024-03-02T08:41:53;22.80;;;16.60;;
11203;SDS011;5659;49.408;11.116;2024-03-02T08:44:19;18.60;;;15.55;;
11203;SDS011;5659;49.408;11.116;2024-03-02T08:46:45;19.88;;;15.88;;
11203;SDS011;5659;49.408;11.116;2024-03-02T08:49:12;19.75;;;15.25;;
11203;SDS011;5659;49.408;11.116;2024-03-02T08:51:38;20.52;;;16.30;;
11203;SDS011;5659;49.408;11.116;2024-03-02T08:54:03;19.35;;;14.90;;
11203;SDS011;5659;49.408;11.116;2024-03-02T08:56:29;17.65;;;14.30;;
11203;SDS011;5659;49.408;11.116;2024-03-02T08:58:56;17.17;;;14.90;;
11203;SDS011;5659;49.408;11.116;2024-03-02T09:01:22;16.23;;;14.07;;
11203;SDS011;5659;49.408;11.116;2024-03-02T09:03:48;17.77;;;14.48;;
11203;SDS011;5659;49.408;11.116;2024-03-02T09:06:16;20.58;;;13.18;;
11203;SDS011;5659;49.408;11.116;2024-03-02T09:08:44;15.98;;;12.30;;
11203;SDS011;5659;49.408;11.116;2024-03-02T09:11:10;18.17;;;13.18;;
11203;SDS011;5659;49.408;11.116;2024-03-02T09:13:37;13.43;;;11.65;;
11203;SDS011;5659;49.408;11.116;2024-03-02T09:16:03;15.63;;;11.85;;
11203;SDS011;5659;49.408;11.116;2024-03-02T09:18:30;12.82;;;11.40;;
11203;SDS011;5659;49.408;11.116;2024-03-02T09:20:56;13.13;;;11.50;;
11203;SDS011;5659;49.408;11.116;2024-03-02T09:23:22;13.00;;;11.43;;
11203;SDS011;5659;49.408;11.116;2024-03-02T09:25:48;12.75;;;10.95;;
11203;SDS011;5659;49.408;11.116;2024-03-02T09:28:17;12.20;;;10.90;;
11203;SDS011;5659;49.408;11.116;2024-03-02T09:30:43;15.30;;;10.27;;
11203;SDS011;5659;49.408;11.116;2024-03-02T09:33:09;13.88;;;10.65;;
11203;SDS011;5659;49.408;11.116;2024-03-02T09:35:34;11.77;;;10.07;;
11203;SDS011;5659;49.408;11.116;2024-03-02T09:38:00;11.32;;;9.82;;
11203;SDS011;5659;49.408;11.116;2024-03-02T09:40:25;11.32;;;10.13;;
11203;SDS011;5659;49.408;11.116;2024-03-02T09:42:51;14.35;;;10.35;;
11203;SDS011;5659;49.408;11.116;2024-03-02T09:45:22;12.07;;;9.82;;
11203;SDS011;5659;49.408;11.116;2024-03-02T09:47:49;10.65;;;9.40;;
11203;SDS011;5659;49.408;11.116;2024-03-02T09:50:15;10.18;;;9.07;;
11203;SDS011;5659;49.408;11.116;2024-03-02T09:52:42;9.38;;;8.40;;
11203;SDS011;5659;49.408;11.116;2024-03-02T09:55:08;10.82;;;8.88;;
11203;SDS011;5659;49.408;11.116;2024-03-02T09:57:34;12.13;;;9.65;;
11203;SDS011;5659;49.408;11.116;2024-03-02T10:00:00;10.27;;;9.05;;
11203;SDS011;5659;49.408;11.116;2024-03-02T10:02:26;14.07;;;8.98;;
11203;SDS011;5659;49.408;11.116;2024-03-02T10:04:51;9.30;;;8.23;;
11203;SDS011;5659;49.408;11.116;2024-03-02T10:07:17;9.68;;;7.88;;
11203;SDS011;5659;49.408;11.116;2024-03-02T10:09:45;9.50;;;8.45;;
11203;SDS011;5659;49.408;11.116;2024-03-02T10:12:12;9.45;;;8.25;;
11203;SDS011;5659;49.408;11.116;2024-03-02T10:14:39;13.15;;;8.68;;
11203;SDS011;5659;49.408;11.116;2024-03-02T10:17:06;13.88;;;9.90;;
11203;SDS011;5659;49.408;11.116;2024-03-02T10:19:36;11.48;;;9.68;;
11203;SDS011;5659;49.408;11.116;2024-03-02T10:22:03;11.45;;;10.05;;
11203;SDS011;5659;49.408;11.116;2024-03-02T10:24:38;15.15;;;10.50;;
11203;SDS011;5659;49.408;11.116;2024-03-02T10:27:07;12.18;;;10.60;;
11203;SDS011;5659;49.408;11.116;2024-03-02T10:29:36;12.93;;;10.20;;
11203;SDS011;5659;49.408;11.116;2024-03-02T10:32:02;12.05;;;10.15;;
11203;SDS011;5659;49.408;11.116;2024-03-02T10:34:28;11.95;;;10.60;;
11203;SDS011;5659;49.408;11.116;2024-03-02T10:36:54;12.50;;;10.73;;
11203;SDS011;5659;49.408;11.116;2024-03-02T10:39:20;12.32;;;9.93;;
11203;SDS011;5659;49.408;11.116;2024-03-02T10:41:46;13.85;;;11.20;;
11203;SDS011;5659;49.408;11.116;2024-03-02T10:44:17;13.55;;;10.40;;
11203;SDS011;5659;49.408;11.116;2024-03-02T10:46:43;13.95;;;11.60;;
11203;SDS011;5659;49.408;11.116;2024-03-02T10:49:12;12.50;;;10.20;;
11203;SDS011;5659;49.408;11.116;2024-03-02T10:51:37;12.32;;;10.73;;
11203;SDS011;5659;49.408;11.116;2024-03-02T10:54:03;14.32;;;11.48;;
11203;SDS011;5659;49.408;11.116;2024-03-02T10:56:31;16.52;;;11.25;;
11203;SDS011;5659;49.408;11.116;2024-03-02T10:59:33;16.20;;;11.18;;
11203;SDS011;5659;49.408;11.116;2024-03-02T11:02:01;13.50;;;11.82;;
11203;SDS011;5659;49.408;11.116;2024-03-02T11:04:29;14.52;;;11.90;;
11203;SDS011;5659;49.408;11.116;2024-03-02T11:06:59;14.02;;;11.95;;
11203;SDS011;5659;49.408;11.116;2024-03-02T11:09:37;15.00;;;12.07;;
11203;SDS011;5659;49.408;11.116;2024-03-02T11:12:09;15.48;;;12.40;;
11203;SDS011;5659;49.408;11.116;2024-03-02T11:14:41;13.50;;;11.73;;
11203;SDS011;5659;49.408;11.116;2024-03-02T11:17:08;13.57;;;10.48;;
11203;SDS011;5659;49.408;11.116;2024-03-02T11:19:35;12.60;;;10.63;;
11203;SDS011;5659;49.408;11.116;2024-03-02T11:22:04;13.68;;;10.32;;
11203;SDS011;5659;49.408;11.116;2024-03-02T11:24:30;11.52;;;10.32;;
11203;SDS011;5659;49.408;11.116;2024-03-02T11:26:58;12.52;;;9.70;;
11203;SDS011;5659;49.408;11.116;2024-03-02T11:32:26;12.18;;;9.88;;
11203;SDS011;5659;49.408;11.116;2024-03-02T11:34:51;11.05;;;9.40;;
11203;SDS011;5659;49.408;11.116;2024-03-02T11:37:20;11.63;;;9.93;;
11203;SDS011;5659;49.408;11.116;2024-03-02T11:39:46;13.63;;;10.32;;
11203;SDS011;5659;49.408;11.116;2024-03-02T11:42:14;14.43;;;11.10;;
11203;SDS011;5659;49.408;11.116;2024-03-02T11:44:47;15.00;;;11.88;;
11203;SDS011;5659;49.408;11.116;2024-03-02T11:47:16;15.68;;;11.82;;
11203;SDS011;5659;49.408;11.116;2024-03-02T11:49:51;18.75;;;11.60;;
11203;SDS011;5659;49.408;11.116;2024-03-02T11:52:18;17.85;;;13.60;;
11203;SDS011;5659;49.408;11.116;2024-03-02T11:54:44;40.80;;;14.60;;
11203;SDS011;5659;49.408;11.116;2024-03-02T11:57:12;23.20;;;14.65;;
11203;SDS011;5659;49.408;11.116;2024-03-02T11:59:42;60.97;;;16.27;;
11203;SDS011;5659;49.408;11.116;2024-03-02T12:02:14;19.02;;;14.88;;
11203;SDS011;5659;49.408;11.116;2024-03-02T12:04:41;24.42;;;15.73;;
11203;SDS011;5659;49.408;11.116;2024-03-02T12:07:08;20.35;;;15.60;;
11203;SDS011;5659;49.408;11.116;2024-03-02T12:09:34;24.95;;;15.00;;
11203;SDS011;5659;49.408;11.116;2024-03-02T12:14:32;21.05;;;16.58;;
11203;SDS011;5659;49.408;11.116;2024-03-02T12:16:58;23.50;;;16.23;;
11203;SDS011;5659;49.408;11.116;2024-03-02T12:19:25;21.85;;;15.38;;
11203;SDS011;5659;49.408;11.116;2024-03-02T12:21:51;21.80;;;16.67;;
11203;SDS011;5659;49.408;11.116;2024-03-02T12:24:18;21.23;;;16.65;;
11203;SDS011;5659;49.408;11.116;2024-03-02T12:26:43;19.20;;;15.90;;
11203;SDS011;5659;49.408;11.116;2024-03-02T12:29:10;20.60;;;15.82;;
11203;SDS011;5659;49.408;11.116;2024-03-02T12:31:36;21.10;;;16.15;;
11203;SDS011;5659;49.408;11.116;2024-03-02T12:34:02;21.83;;;15.27;;
11203;SDS011;5659;49.408;11.116;2024-03-02T12:36:29;19.73;;;16.42;;
11203;SDS011;5659;49.408;11.116;2024-03-02T12:38:54;22.63;;;15.98;;
11203;SDS011;5659;49.408;11.116;2024-03-02T12:41:20;18.90;;;15.25;;
11203;SDS011;5659;49.408;11.116;2024-03-02T12:43:46;18.70;;;14.75;;
11203;SDS011;5659;49.408;11.116;2024-03-02T12:46:12;17.73;;;14.45;;
11203;SDS011;5659;49.408;11.116;2024-03-02T12:48:37;18.40;;;14.18;;
11203;SDS011;5659;49.408;11.116;2024-03-02T12:51:06;17.83;;;14.00;;
11203;SDS011;5659;49.408;11.116;2024-03-02T12:53:31;19.75;;;14.02;;
11203;SDS011;5659;49.408;11.116;2024-03-02T12:55:57;16.85;;;13.43;;
11203;SDS011;5659;49.408;11.116;2024-03-02T12:58:23;17.67;;;13.13;;
11203;SDS011;5659;49.408;11.116;2024-03-02T13:00:49;16.85;;;12.85;;
11203;SDS011;5659;49.408;11.116;2024-03-02T13:03:14;16.90;;;12.68;;
11203;SDS011;5659;49.408;11.116;2024-03-02T13:05:48;18.00;;;12.00;;
11203;SDS011;5659;49.408;11.116;2024-03-02T13:08:14;15.77;;;12.82;;
11203;SDS011;5659;49.408;11.116;2024-03-02T13:10:40;17.98;;;12.30;;
11203;SDS011;5659;49.408;11.116;2024-03-02T13:13:06;14.68;;;12.07;;
11203;SDS011;5659;49.408;11.116;2024-03-02T13:15:32;15.38;;;11.70;;
11203;SDS011;5659;49.408;11.116;2024-03-02T13:17:59;12.13;;;10.18;;
11203;SDS011;5659;49.408;11.116;2024-03-02T13:20:29;14.40;;;11.55;;
11203;SDS011;5659;49.408;11.116;2024-03-02T13:22:56;12.43;;;10.32;;
11203;SDS011;5659;49.408;11.116;2024-03-02T13:25:22;13.77;;;10.93;;
11203;SDS011;5659;49.408;11.116;2024-03-02T13:27:47;14.65;;;10.82;;
11203;SDS011;5659;49.408;11.116;2024-03-02T13:30:13;12.75;;;10.40;;
11203;SDS011;5659;49.408;11.116;2024-03-02T13:32:39;12.23;;;10.85;;
11203;SDS011;5659;49.408;11.116;2024-03-02T13:35:04;14.18;;;11.48;;
11203;SDS011;5659;49.408;11.116;2024-03-02T13:37:30;11.30;;;10.10;;
11203;SDS011;5659;49.408;11.116;2024-03-02T13:39:55;11.90;;;10.30;;
11203;SDS011;5659;49.408;11.116;2024-03-02T13:42:21;14.18;;;12.57;;
11203;SDS011;5659;49.408;11.116;2024-03-02T13:44:47;15.20;;;12.80;;
11203;SDS011;5659;49.408;11.116;2024-03-02T13:47:14;14.40;;;12.15;;
11203;SDS011;5659;49.408;11.116;2024-03-02T13:49:40;14.13;;;11.63;;
11203;SDS011;5659;49.408;11.116;2024-03-02T13:52:08;16.30;;;12.18;;
11203;SDS011;5659;49.408;11.116;2024-03-02T13:54:41;17.20;;;12.25;;
11203;SDS011;5659;49.408;11.116;2024-03-02T13:57:08;16.83;;;13.20;;
11203;SDS011;5659;49.408;11.116;2024-03-02T13:59:35;15.52;;;11.93;;
11203;SDS011;5659;49.408;11.116;2024-03-02T14:02:02;15.95;;;11.88;;
11203;SDS011;5659;49.408;11.116;2024-03-02T14:04:32;14.32;;;12.60;;
11203;SDS011;5659;49.408;11.116;2024-03-02T14:06:58;16.52;;;12.30;;
11203;SDS011;5659;49.408;11.116;2024-03-02T14:09:24;14.40;;;12.27;;
11203;SDS011;5659;49.408;11.116;2024-03-02T14:11:50;18.20;;;13.00;;
11203;SDS011;5659;49.408;11.116;2024-03-02T14:14:16;16.48;;;13.18;;
11203;SDS011;5659;49.408;11.116;2024-03-02T14:16:42;17.08;;;14.30;;
11203;SDS011;5659;49.408;11.116;2024-03-02T14:19:09;17.55;;;13.82;;
11203;SDS011;5659;49.408;11.116;2024-03-02T14:21:35;16.52;;;13.57;;
11203;SDS011;5659;49.408;11.116;2024-03-02T14:24:01;23.00;;;13.25;;
11203;SDS011;5659;49.408;11.116;2024-03-02T14:26:26;18.92;;;13.65;;
11203;SDS011;5659;49.408;11.116;2024-03-02T14:28:53;15.82;;;12.55;;
11203;SDS011;5659;49.408;11.116;2024-03-02T14:31:19;17.08;;;13.15;;